Time;durP1;ratioP1;P1;durP2;ratioP2;P2;SDS_P1;SDS_P2;PMS_P1;PMS_P2;Temp;Humidity;BMP_temperature;BMP_pressure;BME280_temperature;BME280_humidity;BME280_pressure;Samples;Min_cycle;Max_cycle;Signal;HPM_P1;HPM_P2
2021/08/12 00:02:04;;;;;;;5.05;3.42;;;;;;;17.59;77.21;95959.57;1795640;80;21061;-59
2021/08/12 00:04:31;;;;;;;6.62;4.00;;;;;;;17.56;77.27;95953.47;1795233;80;21003;-60
2021/08/12 00:06:58;;;;;;;5.42;3.58;;;;;;;17.61;77.07;95951.48;1795441;80;21445;-59
2021/08/12 00:09:25;;;;;;;5.87;3.95;;;;;;;17.62;76.39;95947.91;1795149;80;20959;-60
2021/08/12 00:11:51;;;;;;;4.40;3.20;;;;;;;17.64;76.63;95949.58;1794952;80;21026;-60
2021/08/12 00:14:18;;;;;;;4.37;3.80;;;;;;;17.54;77.00;95954.88;1795732;80;20978;-60
2021/08/12 00:16:44;;;;;;;6.35;3.70;;;;;;;17.48;76.70;95956.45;1795444;80;21448;-60
2021/08/12 00:19:14;;;;;;;5.72;3.80;;;;;;;17.52;77.57;95956.73;1795232;80;21078;-60
2021/08/12 00:21:41;;;;;;;4.55;3.70;;;;;;;17.58;76.84;95960.95;1795493;80;21030;-60
2021/08/12 00:24:08;;;;;;;4.00;3.40;;;;;;;17.51;76.76;95954.98;1795284;80;21025;-60
2021/08/12 00:26:35;;;;;;;6.72;3.90;;;;;;;17.40;77.04;95950.55;1795384;80;21038;-60
2021/08/12 00:29:04;;;;;;;6.65;3.85;;;;;;;17.36;76.92;95951.16;1795382;80;21018;-60
2021/08/12 00:31:32;;;;;;;6.35;4.62;;;;;;;17.38;77.07;95949.73;1795080;80;21014;-60
2021/08/12 00:33:59;;;;;;;6.35;3.80;;;;;;;17.43;77.35;95952.63;1795241;80;21022;-60
2021/08/12 00:36:28;;;;;;;4.12;3.67;;;;;;;17.46;77.76;95948.96;1795596;80;21476;-60
2021/08/12 00:38:55;;;;;;;4.78;3.67;;;;;;;17.46;77.35;95949.86;1795461;80;21017;-60
2021/08/12 00:41:22;;;;;;;4.62;3.72;;;;;;;17.38;78.21;95957.27;1795651;80;21448;-60
2021/08/12 00:43:49;;;;;;;5.05;3.90;;;;;;;17.37;77.59;95954.69;1795538;80;21030;-60
2021/08/12 00:46:16;;;;;;;5.47;4.22;;;;;;;17.37;77.38;95955.55;1789052;80;21010;-60
2021/08/12 00:48:42;;;;;;;5.67;3.80;;;;;;;17.37;78.20;95958.69;1787094;80;21509;-60
2021/08/12 00:51:09;;;;;;;5.15;4.30;;;;;;;17.33;77.39;95955.72;1787369;80;21019;-60
2021/08/12 00:53:36;;;;;;;6.25;4.30;;;;;;;17.34;77.26;95961.45;1786908;80;20968;-60
2021/08/12 00:56:04;;;;;;;6.17;3.47;;;;;;;17.36;78.14;95961.82;1754727;80;21015;-60
2021/08/12 00:58:34;;;;;;;4.92;4.10;;;;;;;17.28;77.32;95962.09;1787013;80;21055;-60
2021/08/12 01:01:01;;;;;;;5.03;4.17;;;;;;;17.23;77.27;95960.08;1786959;80;21038;-60
2021/08/12 01:03:28;;;;;;;4.75;4.25;;;;;;;17.15;77.45;95953.31;1787018;80;21007;-60
2021/08/12 01:06:02;;;;;;;5.37;4.60;;;;;;;17.07;78.50;95961.14;1787168;80;21007;-60
2021/08/12 01:09:06;;;;;;;4.12;3.47;;;;;;;16.97;79.13;95965.08;1787042;80;20990;-60
2021/08/12 01:11:56;;;;;;;6.28;3.62;;;;;;;16.99;78.92;95965.03;1787100;80;21535;-60
2021/08/12 01:14:45;;;;;;;5.37;3.90;;;;;;;16.99;78.51;95969.03;1787137;80;21007;-60
2021/08/12 01:17:17;;;;;;;5.12;3.58;;;;;;;16.97;78.61;95968.22;1783367;80;21002;-60
2021/08/12 01:20:08;;;;;;;4.33;3.92;;;;;;;16.99;79.12;95972.56;1785733;80;21000;-60
2021/08/12 01:22:45;;;;;;;6.10;3.33;;;;;;;16.99;78.93;95978.36;1752231;80;21007;-60
2021/08/12 01:25:23;;;;;;;6.17;3.90;;;;;;;16.99;79.36;95974.37;1787263;80;21011;-60
2021/08/12 01:27:53;;;;;;;4.65;4.10;;;;;;;16.99;78.67;95975.70;1755089;80;21006;-60
2021/08/12 01:30:33;;;;;;;6.62;4.30;;;;;;;16.98;79.24;95972.14;1787146;80;21003;-60
2021/08/12 01:33:24;;;;;;;6.55;4.28;;;;;;;17.04;79.70;95971.92;1787202;80;21051;-60
2021/08/12 01:35:53;;;;;;;4.53;4.00;;;;;;;17.13;78.90;95968.50;1786891;80;21022;-60
2021/08/12 01:38:24;;;;;;;4.30;3.55;;;;;;;17.14;78.97;95969.78;1787174;80;21019;-60
2021/08/12 01:40:55;;;;;;;5.65;4.00;;;;;;;17.09;79.75;95965.95;1787467;80;20992;-60
2021/08/12 01:43:24;;;;;;;5.62;3.62;;;;;;;17.06;79.65;95971.88;1787092;80;21548;-60
2021/08/12 01:45:55;;;;;;;5.87;4.30;;;;;;;17.02;79.86;95972.44;1785930;80;21023;-60
2021/08/12 01:48:24;;;;;;;4.87;3.62;;;;;;;17.11;79.36;95973.91;1787157;80;21082;-60
2021/08/12 01:50:54;;;;;;;7.45;3.90;;;;;;;17.19;79.20;95973.61;1787086;80;21022;-60
2021/08/12 01:53:22;;;;;;;6.45;3.90;;;;;;;17.19;79.22;95968.28;1786908;80;21085;-60
2021/08/12 01:55:51;;;;;;;7.28;4.20;;;;;;;17.17;79.52;95970.98;1787163;80;20955;-60
2021/08/12 01:58:21;;;;;;;5.03;4.12;;;;;;;17.18;78.84;95968.72;1787153;80;21003;-60
2021/08/12 02:00:50;;;;;;;8.08;3.80;;;;;;;17.21;78.87;95974.39;1787315;80;21461;-59
2021/08/12 02:03:19;;;;;;;7.55;3.87;;;;;;;17.19;78.42;95974.94;1787164;80;21038;-60
2021/08/12 02:05:48;;;;;;;5.92;3.92;;;;;;;17.12;78.40;95978.30;1787216;80;20983;-60
2021/08/12 02:08:21;;;;;;;5.78;3.85;;;;;;;17.06;78.88;95976.73;1787001;80;21023;-60
2021/08/12 02:10:51;;;;;;;5.03;4.37;;;;;;;17.02;78.67;95977.77;1787197;80;20995;-59
2021/08/12 02:13:18;;;;;;;5.25;4.17;;;;;;;17.04;78.67;95976.39;1787155;80;21042;-60
2021/08/12 02:15:46;;;;;;;4.37;3.98;;;;;;;17.02;78.94;95974.24;1787217;80;21464;-60
2021/08/12 02:18:13;;;;;;;7.22;4.03;;;;;;;16.97;78.85;95970.88;1786792;80;21507;-60
2021/08/12 02:20:41;;;;;;;5.83;4.12;;;;;;;16.98;79.01;95969.47;1787430;80;20959;-60
2021/08/12 02:23:22;;;;;;;5.97;4.65;;;;;;;16.90;78.88;95976.90;1787150;80;21014;-60
2021/08/12 02:26:09;;;;;;;4.87;4.20;;;;;;;16.84;79.70;95968.67;1787060;80;21500;-60
2021/08/12 02:28:41;;;;;;;5.28;3.83;;;;;;;16.80;79.47;95974.17;1786869;80;21021;-60
2021/08/12 02:31:15;;;;;;;4.85;4.05;;;;;;;16.72;79.42;95970.42;1787147;80;21023;-60
2021/08/12 02:33:45;;;;;;;6.00;4.30;;;;;;;16.62;79.50;95974.34;1787126;80;21532;-60
2021/08/12 02:36:13;;;;;;;6.55;4.60;;;;;;;16.49;79.95;95967.27;1786754;80;21015;-60
2021/08/12 02:38:43;;;;;;;5.42;4.37;;;;;;;16.44;80.00;95973.22;1787046;80;21018;-59
2021/08/12 02:41:14;;;;;;;10.63;4.67;;;;;;;16.37;80.50;95977.02;1787186;80;21018;-60
2021/08/12 02:43:43;;;;;;;5.78;4.22;;;;;;;16.37;80.04;95977.88;1787165;80;20956;-60
2021/08/12 02:46:11;;;;;;;5.85;4.70;;;;;;;16.40;80.58;95975.57;1787153;80;21002;-60
2021/08/12 02:48:39;;;;;;;4.87;3.60;;;;;;;16.38;80.07;95980.97;1787087;80;21002;-61
2021/08/12 02:51:07;;;;;;;4.85;3.90;;;;;;;16.37;79.89;95979.21;1787517;80;21062;-60
2021/08/12 02:53:35;;;;;;;5.72;4.50;;;;;;;16.34;79.92;95983.33;1787274;80;21605;-60
2021/08/12 02:56:06;;;;;;;5.42;3.85;;;;;;;16.31;80.34;95980.77;1787259;80;20978;-60
2021/08/12 02:58:41;;;;;;;4.47;3.87;;;;;;;16.28;80.76;95991.54;1787134;80;20979;-60
2021/08/12 03:01:09;;;;;;;6.42;4.25;;;;;;;16.27;80.70;95984.45;1787168;80;20979;-60
2021/08/12 03:03:44;;;;;;;5.60;3.95;;;;;;;16.36;80.74;95984.61;1787094;80;21010;-59
2021/08/12 03:06:18;;;;;;;7.58;3.95;;;;;;;16.41;80.37;95986.19;1786958;80;21054;-60
2021/08/12 03:08:46;;;;;;;6.12;4.15;;;;;;;16.39;80.20;95990.69;1787173;80;21041;-60
2021/08/12 03:11:19;;;;;;;4.35;3.95;;;;;;;16.44;80.04;95991.39;1787227;80;21468;-60
2021/08/12 03:13:48;;;;;;;4.70;3.90;;;;;;;16.50;79.93;95998.29;1787242;80;21034;-60
2021/08/12 03:16:15;;;;;;;4.03;3.47;;;;;;;16.54;79.97;95993.74;1787160;80;20952;-60
2021/08/12 03:18:42;;;;;;;7.30;3.70;;;;;;;16.54;79.65;95999.94;1786866;80;20995;-60
2021/08/12 03:21:15;;;;;;;5.15;3.67;;;;;;;16.56;79.81;95998.09;1779824;80;20972;-60
2021/08/12 03:23:43;;;;;;;5.47;4.05;;;;;;;16.59;80.28;96000.64;1786807;80;20979;-60
2021/08/12 03:26:11;;;;;;;5.53;4.15;;;;;;;16.62;80.25;96007.65;1787144;80;20947;-60
2021/08/12 03:28:39;;;;;;;5.12;3.70;;;;;;;16.64;79.84;96013.33;1786930;80;21083;-60
2021/08/12 03:31:05;;;;;;;4.28;3.42;;;;;;;16.70;79.62;96012.70;1787082;80;21022;-60
2021/08/12 03:33:33;;;;;;;8.28;4.28;;;;;;;16.69;80.52;96007.84;1787169;80;21496;-60
2021/08/12 03:36:00;;;;;;;6.05;3.70;;;;;;;16.73;81.15;96014.81;1787063;80;21010;-60
2021/08/12 03:38:27;;;;;;;4.78;3.67;;;;;;;16.75;80.64;96015.60;1786880;80;20984;-60
2021/08/12 03:40:55;;;;;;;3.80;3.40;;;;;;;16.73;80.78;96014.81;1786992;80;20987;-60
2021/08/12 03:43:23;;;;;;;4.92;3.70;;;;;;;16.73;80.14;96019.25;1786768;80;21050;-59
2021/08/12 03:45:50;;;;;;;7.83;4.28;;;;;;;16.80;80.56;96008.34;1788987;80;21018;-59
2021/08/12 03:48:16;;;;;;;6.37;3.37;;;;;;;16.90;80.51;96014.68;1762808;80;21078;-60
2021/08/12 03:50:43;;;;;;;4.45;3.62;;;;;;;17.03;80.07;96014.63;1795745;80;21022;-60
2021/08/12 03:53:10;;;;;;;4.78;3.33;;;;;;;16.99;79.60;96013.88;1795116;80;21030;-60
2021/08/12 03:55:36;;;;;;;5.00;3.65;;;;;;;16.92;79.59;96017.70;1795218;80;21014;-60
2021/08/12 03:58:03;;;;;;;5.47;4.33;;;;;;;16.91;79.77;96021.73;1795160;80;21046;-60
2021/08/12 04:00:31;;;;;;;5.62;4.17;;;;;;;16.94;80.64;96031.84;1795263;80;20986;-60
2021/08/12 04:02:57;;;;;;;9.33;4.62;;;;;;;17.12;80.89;96030.77;1795116;80;20991;-60
2021/08/12 04:05:25;;;;;;;6.12;4.22;;;;;;;17.21;80.54;96033.95;1795139;80;21046;-60
2021/08/12 04:07:52;;;;;;;4.42;3.50;;;;;;;17.34;80.05;96037.02;1795236;80;21074;-60
2021/08/12 04:10:18;;;;;;;6.17;4.30;;;;;;;17.35;79.10;96036.08;1795406;80;20980;-60
2021/08/12 04:12:45;;;;;;;6.65;3.55;;;;;;;17.38;79.04;96038.63;1795365;80;21485;-61
2021/08/12 04:15:12;;;;;;;5.65;4.10;;;;;;;17.40;79.92;96039.91;1764133;80;21046;-60
2021/08/12 04:17:38;;;;;;;4.62;4.12;;;;;;;17.42;79.10;96043.40;1795487;80;20995;-60
2021/08/12 04:20:06;;;;;;;5.95;3.90;;;;;;;17.45;79.08;96043.27;1794873;80;21168;-60
2021/08/12 04:22:33;;;;;;;6.47;4.00;;;;;;;17.40;79.06;96051.45;1795485;80;21503;-60
2021/08/12 04:25:00;;;;;;;5.60;4.50;;;;;;;17.36;79.83;96055.61;1795377;80;21433;-60
2021/08/12 04:27:26;;;;;;;10.00;4.70;;;;;;;17.43;79.99;96053.99;1795616;80;21022;-60
2021/08/12 04:29:53;;;;;;;11.73;4.92;;;;;;;17.56;80.11;96054.39;1795202;80;21508;-61
2021/08/12 04:32:19;;;;;;;5.55;4.05;;;;;;;17.69;79.71;96053.00;1795285;80;21050;-60
2021/08/12 04:34:46;;;;;;;7.67;4.28;;;;;;;17.76;78.50;96057.61;1795447;80;21067;-60
2021/08/12 04:37:12;;;;;;;6.78;4.62;;;;;;;17.72;77.69;96055.55;1795457;80;21469;-60
2021/08/12 04:39:39;;;;;;;7.08;5.30;;;;;;;17.72;77.69;96055.55;1794954;80;21058;-60
2021/08/12 04:42:07;;;;;;;17.32;9.13;;;;;;;17.81;77.78;96052.13;1794937;80;20975;-60
2021/08/12 04:44:33;;;;;;;11.63;6.92;;;;;;;17.88;77.47;96051.82;1795491;80;21017;-60
2021/08/12 04:47:00;;;;;;;10.55;7.37;;;;;;;17.90;77.40;96057.97;1795481;80;21085;-60
2021/08/12 04:49:27;;;;;;;7.30;5.85;;;;;;;17.87;77.84;96066.59;1795271;80;21026;-60
2021/08/12 04:51:55;;;;;;;7.33;5.15;;;;;;;17.84;77.67;96065.34;1795317;80;21019;-60
2021/08/12 04:54:22;;;;;;;7.40;5.17;;;;;;;17.84;77.86;96061.34;1795599;80;20947;-60
2021/08/12 04:56:48;;;;;;;8.70;5.00;;;;;;;17.84;77.72;96066.69;1795174;80;21505;-60
2021/08/12 04:59:15;;;;;;;9.93;5.70;;;;;;;17.79;77.93;96066.86;1795478;80;21049;-60
2021/08/12 05:01:43;;;;;;;8.73;5.75;;;;;;;17.84;78.02;96068.02;1764370;80;20999;-60
2021/08/12 05:04:09;;;;;;;9.20;6.12;;;;;;;17.84;78.02;96068.02;1795301;80;21022;-60
2021/08/12 05:06:36;;;;;;;7.75;5.70;;;;;;;17.89;78.62;96076.71;1795366;80;21014;-60
2021/08/12 05:09:03;;;;;;;14.43;6.10;;;;;;;17.95;78.24;96075.15;1795172;80;21076;-60
2021/08/12 05:11:30;;;;;;;17.62;5.95;;;;;;;18.03;77.78;96078.38;1794895;80;21026;-60
2021/08/12 05:13:57;;;;;;;13.78;5.72;;;;;;;18.07;77.16;96081.34;1795501;80;21126;-60
2021/08/12 05:16:23;;;;;;;17.50;4.78;;;;;;;18.36;75.55;96089.95;1795148;80;21077;-60
2021/08/12 05:18:50;;;;;;;12.28;4.85;;;;;;;18.36;75.55;96089.95;1795233;80;21053;-60
2021/08/12 05:21:17;;;;;;;7.25;4.47;;;;;;;18.51;74.79;96083.10;1795446;80;21083;-60
2021/08/12 05:23:44;;;;;;;10.38;4.80;;;;;;;18.74;75.20;96084.31;1795471;80;21001;-60
2021/08/12 05:26:12;;;;;;;11.88;5.08;;;;;;;19.00;73.90;96086.39;1795117;80;21075;-60
2021/08/12 05:28:38;;;;;;;6.83;4.45;;;;;;;19.17;74.67;96086.95;1764666;80;20979;-60
2021/08/12 05:31:05;;;;;;;8.93;5.05;;;;;;;19.21;73.60;96078.73;1795219;80;21523;-60
2021/08/12 05:33:34;;;;;;;8.35;5.50;;;;;;;19.24;73.35;96089.28;1795297;80;21053;-60
2021/08/12 05:36:02;;;;;;;9.83;4.80;;;;;;;19.34;73.60;96087.06;1795643;80;20975;-60
2021/08/12 05:38:30;;;;;;;11.08;4.97;;;;;;;19.42;73.40;96090.25;1795389;80;21011;-60
2021/08/12 05:40:57;;;;;;;9.63;5.05;;;;;;;19.64;73.39;96089.28;1795061;80;21078;-60
2021/08/12 05:43:25;;;;;;;9.90;5.00;;;;;;;19.88;72.81;96100.67;1764110;80;21495;-60
2021/08/12 05:45:53;;;;;;;8.63;5.20;;;;;;;20.09;71.22;96102.34;1795227;80;21015;-60
2021/08/12 05:48:20;;;;;;;14.83;5.30;;;;;;;20.22;70.88;96100.41;1786889;80;21124;-60
2021/08/12 05:50:48;;;;;;;7.08;5.12;;;;;;;20.23;69.76;96112.85;1779889;80;21004;-60
2021/08/12 05:53:20;;;;;;;9.23;4.65;;;;;;;20.18;69.03;96112.20;1786866;80;20991;-60
2021/08/12 05:55:48;;;;;;;8.70;5.15;;;;;;;20.09;68.83;96115.73;1787437;80;21488;-60
2021/08/12 05:58:15;;;;;;;7.40;5.47;;;;;;;19.98;69.01;96119.85;1787346;80;21019;-60
2021/08/12 06:00:42;;;;;;;13.03;5.20;;;;;;;19.89;69.18;96119.83;1786859;80;21007;-60
2021/08/12 06:03:14;;;;;;;7.58;5.20;;;;;;;19.83;69.83;96121.44;1787256;80;21453;-60
2021/08/12 06:05:42;;;;;;;7.80;5.28;;;;;;;19.81;69.72;96121.53;1787137;80;21010;-60
2021/08/12 06:08:11;;;;;;;10.32;5.12;;;;;;;19.84;70.64;96125.40;1787192;80;21472;-60
2021/08/12 06:10:38;;;;;;;7.20;5.47;;;;;;;20.04;70.93;96124.46;1786888;80;21007;-59
2021/08/12 06:13:05;;;;;;;7.72;5.58;;;;;;;20.27;70.61;96122.02;1787048;80;21015;-60
2021/08/12 06:15:35;;;;;;;11.88;5.62;;;;;;;20.40;69.20;96125.44;1786959;80;21023;-60
2021/08/12 06:18:08;;;;;;;13.43;5.37;;;;;;;20.41;68.70;96132.52;1787204;80;21015;-60
2021/08/12 06:20:36;;;;;;;10.88;5.40;;;;;;;20.57;68.05;96132.69;1787082;80;21071;-60
2021/08/12 06:23:05;;;;;;;6.60;5.20;;;;;;;20.63;67.27;96139.08;1787280;80;20971;-59
2021/08/12 06:25:34;;;;;;;10.82;5.92;;;;;;;20.69;66.61;96134.29;1787005;80;21118;-60
2021/08/12 06:28:01;;;;;;;11.50;5.28;;;;;;;20.72;66.42;96134.13;1786976;80;21513;-60
2021/08/12 06:30:28;;;;;;;9.73;4.97;;;;;;;20.72;65.69;96142.66;1786840;80;21003;-60
2021/08/12 06:32:55;;;;;;;7.35;4.95;;;;;;;20.74;65.42;96142.97;1787316;80;21014;-60
2021/08/12 06:35:22;;;;;;;7.15;5.25;;;;;;;20.88;65.11;96139.58;1787075;80;21015;-59
2021/08/12 06:37:51;;;;;;;11.75;5.50;;;;;;;20.86;64.99;96145.97;1787299;80;20978;-60
2021/08/12 06:40:22;;;;;;;10.20;6.25;;;;;;;20.85;64.50;96148.27;1787050;80;21011;-60
2021/08/12 06:42:51;;;;;;;8.55;5.28;;;;;;;20.83;65.02;96152.36;1787161;80;21468;-59
2021/08/12 06:45:20;;;;;;;7.45;5.20;;;;;;;20.84;64.86;96146.51;1787132;80;21011;-60
2021/08/12 06:47:49;;;;;;;8.43;5.40;;;;;;;21.02;65.02;96146.08;1792278;80;20983;-60
2021/08/12 06:50:19;;;;;;;10.58;5.33;;;;;;;21.05;64.56;96144.09;1794991;80;21018;-60
2021/08/12 06:52:46;;;;;;;8.50;6.45;;;;;;;21.23;65.02;96142.27;1795758;80;21022;-60
2021/08/12 06:55:13;;;;;;;7.95;6.30;;;;;;;21.35;64.61;96146.14;1795171;80;21051;-61
2021/08/12 06:57:41;;;;;;;9.93;6.30;;;;;;;21.36;63.71;96146.05;1795494;80;21014;-59
2021/08/12 07:00:10;;;;;;;8.18;5.87;;;;;;;21.30;62.95;96152.23;1795549;80;20971;-60
2021/08/12 07:02:38;;;;;;;6.45;5.65;;;;;;;21.26;63.11;96154.19;1764353;80;21050;-60
2021/08/12 07:05:06;;;;;;;11.03;7.40;;;;;;;21.22;62.19;96153.97;1795134;80;21570;-60
2021/08/12 07:07:33;;;;;;;20.37;7.67;;;;;;;21.33;63.69;96154.74;1795495;80;21039;-59
2021/08/12 07:10:00;;;;;;;11.75;6.55;;;;;;;21.50;63.65;96159.27;1795306;80;21038;-60
2021/08/12 07:12:26;;;;;;;12.88;6.75;;;;;;;21.66;62.88;96160.66;1795007;80;21079;-59
2021/08/12 07:14:54;;;;;;;10.20;6.10;;;;;;;21.82;62.45;96163.78;1795694;80;21520;-59
2021/08/12 07:17:21;;;;;;;12.47;6.17;;;;;;;21.95;61.17;96168.02;1795079;80;20983;-59
2021/08/12 07:19:48;;;;;;;11.10;6.17;;;;;;;22.03;59.70;96164.42;1795204;80;21559;-59
2021/08/12 07:22:20;;;;;;;11.00;6.05;;;;;;;22.19;60.83;96162.23;1795132;80;21082;-59
2021/08/12 07:24:47;;;;;;;11.45;6.10;;;;;;;22.33;59.91;96167.75;1764276;80;21054;-60
2021/08/12 07:27:14;;;;;;;14.55;5.92;;;;;;;22.50;59.62;96169.46;1795009;80;21565;-60
2021/08/12 07:29:41;;;;;;;7.12;5.72;;;;;;;22.63;59.03;96173.70;1794880;80;21093;-60
2021/08/12 07:32:09;;;;;;;9.03;6.05;;;;;;;22.52;58.27;96178.31;1795686;80;21042;-60
2021/08/12 07:34:38;;;;;;;7.78;5.50;;;;;;;22.44;58.01;96179.23;1794137;80;21499;-60
2021/08/12 07:37:05;;;;;;;11.70;5.80;;;;;;;22.25;57.50;96186.10;1794921;80;20979;-59
2021/08/12 07:39:32;;;;;;;16.90;6.10;;;;;;;22.17;58.06;96195.90;1795439;80;21011;-60
2021/08/12 07:42:00;;;;;;;7.55;5.28;;;;;;;22.19;57.93;96194.03;1795063;80;21061;-60
2021/08/12 07:44:27;;;;;;;8.55;5.45;;;;;;;22.28;57.24;96197.19;1795434;80;21003;-60
2021/08/12 07:46:53;;;;;;;6.85;5.42;;;;;;;22.28;56.95;96199.40;1793471;80;21062;-60
2021/08/12 07:49:20;;;;;;;5.58;5.05;;;;;;;22.23;57.85;96196.95;1786868;80;21027;-60
2021/08/12 07:51:47;;;;;;;6.22;5.60;;;;;;;22.25;57.05;96199.09;1787064;80;21508;-59
2021/08/12 07:54:14;;;;;;;8.08;5.60;;;;;;;22.18;56.61;96208.41;1786821;80;21049;-60
2021/08/12 07:56:41;;;;;;;7.60;5.67;;;;;;;22.10;56.43;96207.97;1787032;80;20983;-59
2021/08/12 07:59:07;;;;;;;5.92;5.15;;;;;;;22.13;57.17;96205.59;1786679;80;21017;-60
2021/08/12 08:01:34;;;;;;;9.35;5.30;;;;;;;22.10;56.98;96201.70;1787305;80;21057;-60
2021/08/12 08:04:02;;;;;;;9.65;5.40;;;;;;;22.03;56.90;96198.50;1786899;80;20976;-60
2021/08/12 08:06:28;;;;;;;7.50;5.75;;;;;;;22.09;57.28;96205.34;1787095;80;20991;-59
2021/08/12 08:08:55;;;;;;;6.83;5.58;;;;;;;22.13;58.15;96201.07;1787088;80;21007;-60
2021/08/12 08:11:22;;;;;;;7.72;5.80;;;;;;;22.24;58.76;96208.57;1786711;80;21058;-60
2021/08/12 08:13:49;;;;;;;7.72;5.80;;;;;;;22.49;58.51;96204.52;1786872;80;21006;-59
2021/08/12 08:16:19;;;;;;;5.30;4.80;;;;;;;22.64;57.79;96200.97;1786802;80;21027;-60
2021/08/12 08:18:44;;;;;;;8.58;5.47;;;;;;;22.77;55.28;96205.17;1786824;80;21023;-60
2021/08/12 08:21:11;;;;;;;8.85;5.22;;;;;;;22.69;53.60;96200.23;1787158;80;21031;-60
2021/08/12 08:23:38;;;;;;;7.40;4.90;;;;;;;22.84;55.87;96206.08;1786788;80;20983;-60
2021/08/12 08:26:04;;;;;;;7.12;5.22;;;;;;;23.16;54.27;96203.83;1787003;80;21528;-60
2021/08/12 08:28:30;;;;;;;10.32;4.80;;;;;;;23.23;52.98;96204.72;1787181;80;20994;-60
2021/08/12 08:30:57;;;;;;;7.47;4.83;;;;;;;23.37;54.69;96192.29;1787251;80;20976;-60
2021/08/12 08:33:23;;;;;;;6.85;4.28;;;;;;;23.42;53.58;96196.92;1787151;80;21320;-60
2021/08/12 08:35:50;;;;;;;9.05;5.03;;;;;;;23.51;52.87;96193.20;1786774;80;21097;-60
2021/08/12 08:38:17;;;;;;;9.45;5.08;;;;;;;23.72;53.17;96198.23;1786870;80;21046;-60
2021/08/12 08:40:43;;;;;;;6.37;3.70;;;;;;;23.92;53.98;96199.73;1779445;80;21050;-60
2021/08/12 08:43:13;;;;;;;4.65;4.08;;;;;;;24.04;49.45;96198.08;1753956;80;22087;-60
2021/08/12 08:45:43;;;;;;;8.08;3.52;;;;;;;24.18;48.54;96198.95;1786951;80;21019;-60
2021/08/12 08:48:14;;;;;;;4.70;3.47;;;;;;;24.32;46.09;96197.23;1791594;80;21598;-60
2021/08/12 08:50:46;;;;;;;5.83;3.92;;;;;;;24.50;47.61;96200.13;1795506;80;21018;-60
2021/08/12 08:53:17;;;;;;;5.80;3.62;;;;;;;24.59;46.12;96190.10;1795673;80;21031;-60
2021/08/12 08:55:45;;;;;;;5.03;3.62;;;;;;;24.71;46.94;96191.60;1795384;80;20994;-61
2021/08/12 08:58:13;;;;;;;5.70;3.67;;;;;;;24.82;44.90;96196.69;1795371;80;21053;-60
2021/08/12 09:00:41;;;;;;;5.08;3.60;;;;;;;24.88;45.11;96194.55;1795249;80;21492;-60
2021/08/12 09:03:07;;;;;;;8.18;4.00;;;;;;;25.03;45.41;96197.58;1795360;80;21092;-60
2021/08/12 09:05:35;;;;;;;4.47;3.65;;;;;;;25.19;46.16;96198.80;1795612;80;21006;-60
2021/08/12 09:08:03;;;;;;;4.30;3.90;;;;;;;25.24;44.37;96193.95;1795285;80;21114;-60
2021/08/12 09:10:30;;;;;;;5.90;4.00;;;;;;;25.33;45.24;96200.09;1795564;80;21473;-60
2021/08/12 09:12:57;;;;;;;5.05;4.20;;;;;;;25.40;44.73;96194.66;1795307;80;21010;-60
2021/08/12 09:15:24;;;;;;;4.08;3.58;;;;;;;25.47;43.89;96199.14;1795000;80;21091;-60
2021/08/12 09:17:53;;;;;;;5.15;4.12;;;;;;;25.57;43.27;96203.43;1795320;80;21019;-60
2021/08/12 09:20:24;;;;;;;5.97;4.05;;;;;;;25.72;44.60;96198.31;1795367;80;21049;-60
2021/08/12 09:23:07;;;;;;;5.10;4.15;;;;;;;25.91;44.55;96204.70;1795294;80;20994;-60
2021/08/12 09:25:48;;;;;;;5.28;3.80;;;;;;;25.97;44.28;96197.50;1795169;80;21089;-60
2021/08/12 09:28:30;;;;;;;6.80;4.40;;;;;;;26.02;43.93;96202.09;1794591;80;21472;-60
2021/08/12 09:31:05;;;;;;;4.35;3.77;;;;;;;26.10;43.52;96197.00;1795458;80;21034;-60
2021/08/12 09:33:46;;;;;;;6.35;3.70;;;;;;;26.25;41.87;96203.66;1795409;80;21468;-60
2021/08/12 09:36:27;;;;;;;7.80;4.12;;;;;;;26.27;41.24;96199.01;1795276;80;21042;-60
2021/08/12 09:39:22;;;;;;;5.58;3.62;;;;;;;26.34;41.70;96198.95;1795575;80;21006;-59
2021/08/12 09:41:54;;;;;;;4.47;3.55;;;;;;;26.40;42.59;96193.58;1795354;80;21006;-59
2021/08/12 09:44:39;;;;;;;4.55;3.52;;;;;;;26.60;40.95;96197.08;1795422;80;21034;-60
2021/08/12 09:47:16;;;;;;;5.20;4.30;;;;;;;26.74;41.75;96194.24;1795006;80;21544;-60
2021/08/12 09:49:52;;;;;;;5.00;3.47;;;;;;;26.82;39.44;96201.80;1786835;80;21018;-60
2021/08/12 09:52:36;;;;;;;5.42;3.52;;;;;;;26.74;40.35;96204.21;1787175;80;21045;-60
2021/08/12 09:55:18;;;;;;;4.83;3.67;;;;;;;26.80;40.92;96200.18;1787235;80;21473;-60
2021/08/12 09:57:54;;;;;;;4.67;3.65;;;;;;;26.86;41.28;96197.89;1786736;80;21062;-60
2021/08/12 10:00:42;;;;;;;4.58;3.85;;;;;;;26.94;40.25;96198.19;1787333;80;20983;-60
2021/08/12 10:03:26;;;;;;;5.00;3.40;;;;;;;26.91;40.42;96194.82;1732909;80;21563;-60
2021/08/12 10:06:02;;;;;;;4.17;3.15;;;;;;;27.18;39.33;96198.20;1787138;80;21532;-60
2021/08/12 10:08:37;;;;;;;5.92;3.27;;;;;;;27.55;39.98;96194.06;1787238;80;20999;-60
2021/08/12 10:11:30;;;;;;;5.70;3.15;;;;;;;27.85;39.86;96193.20;1787311;80;21022;-60
2021/08/12 10:14:03;;;;;;;3.87;3.22;;;;;;;28.00;38.63;96199.63;1787277;80;21014;-60
2021/08/12 10:16:35;;;;;;;5.90;3.40;;;;;;;28.07;36.42;96201.84;1787370;80;21536;-60
2021/08/12 10:19:06;;;;;;;5.55;3.87;;;;;;;28.04;35.42;96212.45;1787194;80;21508;-60
2021/08/12 10:21:39;;;;;;;3.80;3.05;;;;;;;27.88;35.74;96207.88;1786928;80;21015;-60
2021/08/12 10:24:07;;;;;;;7.85;3.30;;;;;;;27.73;35.12;96207.18;1787223;80;21015;-60
2021/08/12 10:26:36;;;;;;;6.37;3.80;;;;;;;27.70;35.80;96204.72;1787067;80;21006;-60
2021/08/12 10:29:11;;;;;;;5.70;3.02;;;;;;;27.79;35.49;96211.61;1787151;80;21472;-60
2021/08/12 10:31:39;;;;;;;3.55;3.20;;;;;;;28.01;34.38;96206.77;1756557;80;21481;-60
2021/08/12 10:34:06;;;;;;;3.55;3.02;;;;;;;28.32;34.14;96204.84;1787095;80;20995;-60
2021/08/12 10:36:33;;;;;;;7.03;3.27;;;;;;;28.32;32.58;96205.70;1787080;80;21079;-60
2021/08/12 10:39:01;;;;;;;5.30;3.27;;;;;;;28.45;34.62;96204.25;1786832;80;21412;-60
2021/08/12 10:41:28;;;;;;;8.85;3.20;;;;;;;28.69;33.72;96203.63;1787040;80;21015;-60
2021/08/12 10:43:57;;;;;;;3.83;2.87;;;;;;;28.84;33.56;96200.16;1787181;80;20991;-60
2021/08/12 10:46:37;;;;;;;7.87;3.72;;;;;;;28.79;32.75;96200.17;1787132;80;21007;-60
2021/08/12 10:49:27;;;;;;;4.42;2.62;;;;;;;28.40;33.90;96196.94;1793031;80;21057;-60
2021/08/12 10:52:07;;;;;;;6.87;3.20;;;;;;;27.83;33.95;96196.88;1795236;80;21053;-60
2021/08/12 10:54:39;;;;;;;7.67;3.10;;;;;;;27.48;35.41;96204.99;1795209;80;21046;-60
2021/08/12 10:57:25;;;;;;;5.23;3.23;;;;;;;27.16;36.09;96213.67;1795571;80;21007;-59
2021/08/12 10:59:54;;;;;;;6.90;3.70;;;;;;;26.93;37.93;96210.47;1795022;80;21288;-60
2021/08/12 11:02:30;;;;;;;6.35;3.35;;;;;;;26.53;37.74;96212.03;1795151;80;21050;-60
2021/08/12 11:05:04;;;;;;;6.28;3.67;;;;;;;26.83;38.32;96215.70;1789073;80;21023;-60
2021/08/12 11:07:41;;;;;;;5.78;3.05;;;;;;;27.28;36.77;96209.72;1795005;80;21544;-60
2021/08/12 11:10:13;;;;;;;4.25;3.50;;;;;;;27.69;36.45;96205.18;1795264;80;21022;-60
2021/08/12 11:12:59;;;;;;;3.67;3.02;;;;;;;27.96;35.75;96200.84;1795296;80;21052;-60
2021/08/12 11:15:43;;;;;;;4.15;3.25;;;;;;;27.78;34.73;96200.91;1795539;80;21026;-60
2021/08/12 11:18:13;;;;;;;6.72;3.45;;;;;;;27.33;35.03;96213.80;1795348;80;21138;-60
2021/08/12 11:20:44;;;;;;;6.25;3.45;;;;;;;26.94;36.33;96217.14;1795447;80;21083;-60
2021/08/12 11:23:26;;;;;;;5.92;3.35;;;;;;;26.58;36.83;96212.56;1795443;80;21554;-60
2021/08/12 11:26:03;;;;;;;7.60;3.40;;;;;;;26.49;38.04;96214.57;1795597;80;20995;-60
2021/08/12 11:28:44;;;;;;;4.87;3.10;;;;;;;27.00;38.03;96209.53;1794790;80;21019;-60
2021/08/12 11:31:27;;;;;;;6.53;3.20;;;;;;;27.53;37.65;96200.58;1795501;80;21010;-60
2021/08/12 11:33:59;;;;;;;3.50;2.80;;;;;;;28.03;37.00;96198.53;1795154;80;21046;-60
2021/08/12 11:36:31;;;;;;;7.23;2.80;;;;;;;28.47;36.01;96195.49;1795788;80;21054;-60
2021/08/12 11:39:06;;;;;;;3.40;3.00;;;;;;;28.90;35.69;96197.42;1790313;80;20995;-60
2021/08/12 11:41:42;;;;;;;4.17;3.37;;;;;;;29.26;33.40;96192.69;1794872;80;21010;-60
2021/08/12 11:44:12;;;;;;;4.87;3.08;;;;;;;29.61;32.68;96189.70;1764356;80;21516;-60
2021/08/12 11:46:41;;;;;;;5.42;2.95;;;;;;;29.42;32.78;96203.13;1795595;80;21531;-59